sensor_id;sensor_type;location;lat;lon;timestamp;P1;durP1;ratioP1;P2;durP2;ratioP2
67757;SDS011;54562;47.620;18.786;2022-12-01T00:01:03;11.30;;;6.30;;
67757;SDS011;54562;47.620;18.786;2022-12-01T00:04:11;12.10;;;6.20;;
67757;SDS011;54562;47.620;18.786;2022-12-01T00:07:19;12.80;;;6.70;;
67757;SDS011;54562;47.620;18.786;2022-12-01T00:10:28;14.00;;;7.80;;
67757;SDS011;54562;47.620;18.786;2022-12-01T00:13:36;12.70;;;7.60;;
67757;SDS011;54562;47.620;18.786;2022-12-01T00:16:45;10.90;;;5.90;;
67757;SDS011;54562;47.620;18.786;2022-12-01T00:19:53;13.30;;;6.40;;
67757;SDS011;54562;47.620;18.786;2022-12-01T00:23:01;11.30;;;6.10;;
67757;SDS011;54562;47.620;18.786;2022-12-01T00:26:10;10.80;;;5.60;;
67757;SDS011;54562;47.620;18.786;2022-12-01T00:29:18;11.30;;;5.30;;
67757;SDS011;54562;47.620;18.786;2022-12-01T00:32:26;11.10;;;5.30;;
67757;SDS011;54562;47.620;18.786;2022-12-01T00:35:36;9.30;;;4.90;;
67757;SDS011;54562;47.620;18.786;2022-12-01T00:38:44;11.20;;;4.90;;
67757;SDS011;54562;47.620;18.786;2022-12-01T00:41:52;10.30;;;5.00;;
67757;SDS011;54562;47.620;18.786;2022-12-01T00:45:02;10.10;;;5.20;;
67757;SDS011;54562;47.620;18.786;2022-12-01T00:48:11;11.00;;;5.60;;
67757;SDS011;54562;47.620;18.786;2022-12-01T00:51:18;10.60;;;5.50;;
67757;SDS011;54562;47.620;18.786;2022-12-01T00:54:27;10.40;;;5.30;;
67757;SDS011;54562;47.620;18.786;2022-12-01T00:57:36;11.20;;;5.40;;
67757;SDS011;54562;47.620;18.786;2022-12-01T01:00:44;12.00;;;5.40;;
67757;SDS011;54562;47.620;18.786;2022-12-01T01:03:52;9.50;;;5.60;;
67757;SDS011;54562;47.620;18.786;2022-12-01T01:06:59;9.60;;;5.50;;
67757;SDS011;54562;47.620;18.786;2022-12-01T01:10:10;9.70;;;5.20;;
67757;SDS011;54562;47.620;18.786;2022-12-01T01:13:18;10.30;;;5.40;;
67757;SDS011;54562;47.620;18.786;2022-12-01T01:16:27;11.00;;;5.80;;
67757;SDS011;54562;47.620;18.786;2022-12-01T01:19:35;12.20;;;6.30;;
67757;SDS011;54562;47.620;18.786;2022-12-01T01:22:43;12.40;;;6.00;;
67757;SDS011;54562;47.620;18.786;2022-12-01T01:25:51;10.30;;;5.50;;
67757;SDS011;54562;47.620;18.786;2022-12-01T01:29:00;9.80;;;5.50;;
67757;SDS011;54562;47.620;18.786;2022-12-01T01:32:11;11.70;;;6.20;;
67757;SDS011;54562;47.620;18.786;2022-12-01T01:35:19;11.10;;;6.10;;
67757;SDS011;54562;47.620;18.786;2022-12-01T01:38:27;11.30;;;6.10;;
67757;SDS011;54562;47.620;18.786;2022-12-01T01:41:36;13.30;;;6.70;;
67757;SDS011;54562;47.620;18.786;2022-12-01T01:44:52;12.10;;;6.60;;
67757;SDS011;54562;47.620;18.786;2022-12-01T01:48:01;14.80;;;7.40;;
67757;SDS011;54562;47.620;18.786;2022-12-01T01:51:10;14.10;;;7.20;;
67757;SDS011;54562;47.620;18.786;2022-12-01T01:54:23;14.00;;;7.20;;
67757;SDS011;54562;47.620;18.786;2022-12-01T01:57:35;13.70;;;7.20;;
67757;SDS011;54562;47.620;18.786;2022-12-01T02:00:45;12.50;;;7.20;;
67757;SDS011;54562;47.620;18.786;2022-12-01T02:03:54;13.90;;;7.10;;
67757;SDS011;54562;47.620;18.786;2022-12-01T02:07:04;13.20;;;7.40;;
67757;SDS011;54562;47.620;18.786;2022-12-01T02:13:33;11.50;;;5.90;;
67757;SDS011;54562;47.620;18.786;2022-12-01T02:16:51;11.50;;;6.30;;
67757;SDS011;54562;47.620;18.786;2022-12-01T02:20:31;11.90;;;6.50;;
67757;SDS011;54562;47.620;18.786;2022-12-01T02:24:13;12.10;;;6.30;;
67757;SDS011;54562;47.620;18.786;2022-12-01T02:27:48;9.80;;;5.30;;
67757;SDS011;54562;47.620;18.786;2022-12-01T02:31:09;9.60;;;5.40;;
67757;SDS011;54562;47.620;18.786;2022-12-01T02:34:26;10.10;;;5.40;;
67757;SDS011;54562;47.620;18.786;2022-12-01T02:37:44;10.50;;;5.40;;
67757;SDS011;54562;47.620;18.786;2022-12-01T02:41:06;11.40;;;5.70;;
67757;SDS011;54562;47.620;18.786;2022-12-01T02:44:23;11.30;;;6.10;;
67757;SDS011;54562;47.620;18.786;2022-12-01T02:47:36;13.40;;;6.80;;
67757;SDS011;54562;47.620;18.786;2022-12-01T02:50:46;14.40;;;7.10;;
67757;SDS011;54562;47.620;18.786;2022-12-01T02:53:56;14.90;;;7.60;;
67757;SDS011;54562;47.620;18.786;2022-12-01T02:57:10;14.20;;;7.80;;
67757;SDS011;54562;47.620;18.786;2022-12-01T03:00:19;13.10;;;7.50;;
67757;SDS011;54562;47.620;18.786;2022-12-01T03:03:36;15.10;;;8.50;;
67757;SDS011;54562;47.620;18.786;2022-12-01T03:07:09;14.70;;;7.90;;
67757;SDS011;54562;47.620;18.786;2022-12-01T03:10:28;13.40;;;7.40;;
67757;SDS011;54562;47.620;18.786;2022-12-01T03:13:51;15.80;;;7.70;;
67757;SDS011;54562;47.620;18.786;2022-12-01T03:17:10;13.90;;;7.50;;
67757;SDS011;54562;47.620;18.786;2022-12-01T03:20:26;14.70;;;7.40;;
67757;SDS011;54562;47.620;18.786;2022-12-01T03:23:41;15.30;;;8.40;;
67757;SDS011;54562;47.620;18.786;2022-12-01T03:26:55;13.90;;;8.20;;
67757;SDS011;54562;47.620;18.786;2022-12-01T03:30:06;15.50;;;8.60;;
67757;SDS011;54562;47.620;18.786;2022-12-01T03:33:22;18.10;;;9.80;;
67757;SDS011;54562;47.620;18.786;2022-12-01T03:36:36;16.10;;;9.60;;
67757;SDS011;54562;47.620;18.786;2022-12-01T03:39:48;17.90;;;10.00;;
67757;SDS011;54562;47.620;18.786;2022-12-01T03:43:08;18.30;;;8.60;;
67757;SDS011;54562;47.620;18.786;2022-12-01T03:46:23;18.10;;;9.20;;
67757;SDS011;54562;47.620;18.786;2022-12-01T03:49:38;16.30;;;8.40;;
67757;SDS011;54562;47.620;18.786;2022-12-01T03:52:51;15.80;;;8.90;;
67757;SDS011;54562;47.620;18.786;2022-12-01T03:56:06;18.10;;;9.20;;
67757;SDS011;54562;47.620;18.786;2022-12-01T03:59:16;16.90;;;8.20;;
67757;SDS011;54562;47.620;18.786;2022-12-01T04:02:28;14.30;;;7.80;;
67757;SDS011;54562;47.620;18.786;2022-12-01T04:05:37;15.50;;;8.40;;
67757;SDS011;54562;47.620;18.786;2022-12-01T04:08:52;16.40;;;8.20;;
67757;SDS011;54562;47.620;18.786;2022-12-01T04:12:00;15.60;;;7.80;;
67757;SDS011;54562;47.620;18.786;2022-12-01T04:15:26;11.20;;;5.10;;
67757;SDS011;54562;47.620;18.786;2022-12-01T04:18:34;15.60;;;8.40;;
67757;SDS011;54562;47.620;18.786;2022-12-01T04:21:42;14.00;;;7.50;;
67757;SDS011;54562;47.620;18.786;2022-12-01T04:24:50;15.30;;;7.30;;
67757;SDS011;54562;47.620;18.786;2022-12-01T04:27:59;19.40;;;9.30;;
67757;SDS011;54562;47.620;18.786;2022-12-01T04:31:07;14.10;;;7.90;;
67757;SDS011;54562;47.620;18.786;2022-12-01T04:34:15;16.30;;;8.40;;
67757;SDS011;54562;47.620;18.786;2022-12-01T04:37:22;16.40;;;8.50;;
67757;SDS011;54562;47.620;18.786;2022-12-01T04:40:30;14.10;;;7.20;;
67757;SDS011;54562;47.620;18.786;2022-12-01T04:43:38;13.90;;;7.40;;
67757;SDS011;54562;47.620;18.786;2022-12-01T04:46:46;14.70;;;7.70;;
67757;SDS011;54562;47.620;18.786;2022-12-01T04:49:55;20.60;;;10.30;;
67757;SDS011;54562;47.620;18.786;2022-12-01T04:53:04;23.40;;;11.90;;
67757;SDS011;54562;47.620;18.786;2022-12-01T04:56:12;23.40;;;13.00;;
67757;SDS011;54562;47.620;18.786;2022-12-01T04:59:20;21.50;;;10.30;;
67757;SDS011;54562;47.620;18.786;2022-12-01T05:02:28;14.80;;;8.40;;
67757;SDS011;54562;47.620;18.786;2022-12-01T05:05:36;11.20;;;6.60;;
67757;SDS011;54562;47.620;18.786;2022-12-01T05:08:44;14.50;;;7.60;;
67757;SDS011;54562;47.620;18.786;2022-12-01T05:11:52;24.40;;;10.80;;
67757;SDS011;54562;47.620;18.786;2022-12-01T05:15:01;23.70;;;10.10;;
67757;SDS011;54562;47.620;18.786;2022-12-01T05:18:10;16.00;;;7.50;;
67757;SDS011;54562;47.620;18.786;2022-12-01T05:21:18;25.30;;;9.00;;
67757;SDS011;54562;47.620;18.786;2022-12-01T05:24:26;18.10;;;8.50;;
67757;SDS011;54562;47.620;18.786;2022-12-01T05:27:33;19.40;;;9.00;;
67757;SDS011;54562;47.620;18.786;2022-12-01T05:30:42;14.10;;;6.40;;
67757;SDS011;54562;47.620;18.786;2022-12-01T05:33:49;18.90;;;9.50;;
67757;SDS011;54562;47.620;18.786;2022-12-01T05:36:57;18.80;;;8.60;;
67757;SDS011;54562;47.620;18.786;2022-12-01T05:40:07;16.30;;;8.60;;
67757;SDS011;54562;47.620;18.786;2022-12-01T05:43:17;16.00;;;8.40;;
67757;SDS011;54562;47.620;18.786;2022-12-01T05:46:32;16.20;;;8.40;;
67757;SDS011;54562;47.620;18.786;2022-12-01T05:49:40;14.80;;;7.60;;
67757;SDS011;54562;47.620;18.786;2022-12-01T05:52:48;14.00;;;8.00;;
67757;SDS011;54562;47.620;18.786;2022-12-01T05:55:56;15.00;;;7.90;;
67757;SDS011;54562;47.620;18.786;2022-12-01T05:59:05;15.50;;;7.40;;
67757;SDS011;54562;47.620;18.786;2022-12-01T06:02:12;15.00;;;8.00;;
67757;SDS011;54562;47.620;18.786;2022-12-01T06:05:20;14.90;;;7.90;;
67757;SDS011;54562;47.620;18.786;2022-12-01T06:08:28;14.80;;;8.00;;
67757;SDS011;54562;47.620;18.786;2022-12-01T06:11:37;16.70;;;8.70;;
67757;SDS011;54562;47.620;18.786;2022-12-01T06:14:44;15.50;;;7.70;;
67757;SDS011;54562;47.620;18.786;2022-12-01T06:17:53;11.60;;;7.00;;
67757;SDS011;54562;47.620;18.786;2022-12-01T06:21:05;14.00;;;7.10;;
67757;SDS011;54562;47.620;18.786;2022-12-01T06:27:19;13.40;;;7.30;;
67757;SDS011;54562;47.620;18.786;2022-12-01T06:30:29;15.20;;;8.30;;
67757;SDS011;54562;47.620;18.786;2022-12-01T06:33:37;16.20;;;8.50;;
67757;SDS011;54562;47.620;18.786;2022-12-01T06:36:45;15.00;;;7.80;;
67757;SDS011;54562;47.620;18.786;2022-12-01T06:39:53;16.60;;;8.00;;
67757;SDS011;54562;47.620;18.786;2022-12-01T06:43:02;15.50;;;8.30;;
67757;SDS011;54562;47.620;18.786;2022-12-01T06:46:14;13.20;;;8.00;;
67757;SDS011;54562;47.620;18.786;2022-12-01T06:49:22;17.10;;;8.50;;
67757;SDS011;54562;47.620;18.786;2022-12-01T06:52:30;15.40;;;7.90;;
67757;SDS011;54562;47.620;18.786;2022-12-01T06:55:39;15.70;;;8.30;;
67757;SDS011;54562;47.620;18.786;2022-12-01T06:58:47;16.50;;;7.80;;
67757;SDS011;54562;47.620;18.786;2022-12-01T07:01:55;15.70;;;8.80;;
67757;SDS011;54562;47.620;18.786;2022-12-01T07:05:05;15.70;;;9.30;;
67757;SDS011;54562;47.620;18.786;2022-12-01T07:08:13;16.80;;;8.60;;
67757;SDS011;54562;47.620;18.786;2022-12-01T07:11:21;16.10;;;8.40;;
67757;SDS011;54562;47.620;18.786;2022-12-01T07:14:29;18.20;;;8.60;;
67757;SDS011;54562;47.620;18.786;2022-12-01T07:17:37;18.60;;;9.00;;
67757;SDS011;54562;47.620;18.786;2022-12-01T07:20:45;18.40;;;8.70;;
67757;SDS011;54562;47.620;18.786;2022-12-01T07:23:54;15.50;;;8.70;;
67757;SDS011;54562;47.620;18.786;2022-12-01T07:27:02;15.20;;;8.40;;
67757;SDS011;54562;47.620;18.786;2022-12-01T07:30:11;17.20;;;8.50;;
67757;SDS011;54562;47.620;18.786;2022-12-01T07:33:19;15.50;;;8.70;;
67757;SDS011;54562;47.620;18.786;2022-12-01T07:36:27;16.80;;;8.40;;
67757;SDS011;54562;47.620;18.786;2022-12-01T07:39:35;16.60;;;8.90;;
67757;SDS011;54562;47.620;18.786;2022-12-01T07:42:43;18.40;;;9.40;;
67757;SDS011;54562;47.620;18.786;2022-12-01T07:45:52;20.20;;;10.90;;
67757;SDS011;54562;47.620;18.786;2022-12-01T07:49:00;23.10;;;11.10;;
67757;SDS011;54562;47.620;18.786;2022-12-01T07:52:10;28.10;;;14.00;;
67757;SDS011;54562;47.620;18.786;2022-12-01T07:55:18;26.90;;;12.00;;
67757;SDS011;54562;47.620;18.786;2022-12-01T07:58:26;20.90;;;11.40;;
67757;SDS011;54562;47.620;18.786;2022-12-01T08:01:34;28.20;;;14.90;;
67757;SDS011;54562;47.620;18.786;2022-12-01T08:04:48;28.50;;;16.90;;
67757;SDS011;54562;47.620;18.786;2022-12-01T08:07:59;23.10;;;13.20;;
67757;SDS011;54562;47.620;18.786;2022-12-01T08:11:10;21.00;;;13.10;;
67757;SDS011;54562;47.620;18.786;2022-12-01T08:14:21;25.20;;;14.60;;
67757;SDS011;54562;47.620;18.786;2022-12-01T08:17:28;23.30;;;13.80;;
67757;SDS011;54562;47.620;18.786;2022-12-01T08:20:36;24.80;;;13.00;;
67757;SDS011;54562;47.620;18.786;2022-12-01T08:23:45;19.10;;;10.20;;
67757;SDS011;54562;47.620;18.786;2022-12-01T08:26:53;19.10;;;10.80;;
67757;SDS011;54562;47.620;18.786;2022-12-01T08:30:02;20.40;;;11.50;;
67757;SDS011;54562;47.620;18.786;2022-12-01T08:33:12;20.30;;;10.80;;
67757;SDS011;54562;47.620;18.786;2022-12-01T08:36:21;22.60;;;12.60;;
67757;SDS011;54562;47.620;18.786;2022-12-01T08:39:30;21.40;;;12.30;;
67757;SDS011;54562;47.620;18.786;2022-12-01T08:42:38;19.20;;;11.10;;
67757;SDS011;54562;47.620;18.786;2022-12-01T08:45:47;20.50;;;11.10;;
67757;SDS011;54562;47.620;18.786;2022-12-01T08:48:56;20.10;;;9.50;;
67757;SDS011;54562;47.620;18.786;2022-12-01T08:52:05;19.80;;;10.10;;
67757;SDS011;54562;47.620;18.786;2022-12-01T08:55:13;18.10;;;9.30;;
67757;SDS011;54562;47.620;18.786;2022-12-01T08:58:21;17.20;;;9.40;;
67757;SDS011;54562;47.620;18.786;2022-12-01T09:01:32;17.70;;;9.10;;
67757;SDS011;54562;47.620;18.786;2022-12-01T09:04:56;17.40;;;9.00;;
67757;SDS011;54562;47.620;18.786;2022-12-01T09:08:04;17.20;;;9.50;;
67757;SDS011;54562;47.620;18.786;2022-12-01T09:11:39;17.50;;;9.10;;
67757;SDS011;54562;47.620;18.786;2022-12-01T09:14:48;18.30;;;10.10;;
67757;SDS011;54562;47.620;18.786;2022-12-01T09:17:57;19.40;;;10.20;;
67757;SDS011;54562;47.620;18.786;2022-12-01T09:21:12;19.30;;;9.90;;
67757;SDS011;54562;47.620;18.786;2022-12-01T09:24:21;17.90;;;9.50;;
67757;SDS011;54562;47.620;18.786;2022-12-01T09:27:30;17.30;;;9.50;;
67757;SDS011;54562;47.620;18.786;2022-12-01T09:30:38;19.50;;;9.00;;
67757;SDS011;54562;47.620;18.786;2022-12-01T09:33:46;17.50;;;9.30;;
67757;SDS011;54562;47.620;18.786;2022-12-01T09:36:56;18.80;;;9.10;;
67757;SDS011;54562;47.620;18.786;2022-12-01T09:40:06;16.90;;;9.00;;
67757;SDS011;54562;47.620;18.786;2022-12-01T09:43:21;21.20;;;9.00;;
67757;SDS011;54562;47.620;18.786;2022-12-01T09:46:36;18.50;;;9.00;;
67757;SDS011;54562;47.620;18.786;2022-12-01T09:49:54;17.50;;;8.90;;
67757;SDS011;54562;47.620;18.786;2022-12-01T09:53:07;17.60;;;8.60;;
67757;SDS011;54562;47.620;18.786;2022-12-01T09:56:22;16.90;;;8.50;;
67757;SDS011;54562;47.620;18.786;2022-12-01T09:59:34;19.20;;;9.30;;
67757;SDS011;54562;47.620;18.786;2022-12-01T10:02:51;15.00;;;7.40;;
67757;SDS011;54562;47.620;18.786;2022-12-01T10:06:08;14.30;;;7.90;;
67757;SDS011;54562;47.620;18.786;2022-12-01T10:09:40;14.60;;;8.00;;
67757;SDS011;54562;47.620;18.786;2022-12-01T10:12:55;15.60;;;8.30;;
67757;SDS011;54562;47.620;18.786;2022-12-01T10:16:09;14.40;;;7.90;;
67757;SDS011;54562;47.620;18.786;2022-12-01T10:19:27;13.20;;;7.00;;
67757;SDS011;54562;47.620;18.786;2022-12-01T10:22:53;14.60;;;8.20;;
67757;SDS011;54562;47.620;18.786;2022-12-01T10:26:14;15.30;;;8.20;;
67757;SDS011;54562;47.620;18.786;2022-12-01T10:29:36;14.60;;;7.50;;
67757;SDS011;54562;47.620;18.786;2022-12-01T10:32:53;14.90;;;7.60;;
67757;SDS011;54562;47.620;18.786;2022-12-01T10:36:06;13.50;;;7.90;;
67757;SDS011;54562;47.620;18.786;2022-12-01T10:39:20;13.70;;;7.60;;
67757;SDS011;54562;47.620;18.786;2022-12-01T10:42:38;14.60;;;7.80;;
67757;SDS011;54562;47.620;18.786;2022-12-01T10:45:48;14.30;;;7.90;;
67757;SDS011;54562;47.620;18.786;2022-12-01T10:48:58;14.90;;;8.30;;
67757;SDS011;54562;47.620;18.786;2022-12-01T10:52:33;16.10;;;9.10;;
67757;SDS011;54562;47.620;18.786;2022-12-01T10:55:43;15.50;;;8.70;;
67757;SDS011;54562;47.620;18.786;2022-12-01T10:58:58;19.10;;;10.10;;
67757;SDS011;54562;47.620;18.786;2022-12-01T11:02:22;19.10;;;10.60;;
67757;SDS011;54562;47.620;18.786;2022-12-01T11:05:36;18.70;;;10.80;;
67757;SDS011;54562;47.620;18.786;2022-12-01T11:08:52;20.70;;;10.60;;
67757;SDS011;54562;47.620;18.786;2022-12-01T11:12:04;19.90;;;10.70;;
67757;SDS011;54562;47.620;18.786;2022-12-01T11:15:24;19.50;;;11.00;;
67757;SDS011;54562;47.620;18.786;2022-12-01T11:18:37;20.40;;;11.00;;
67757;SDS011;54562;47.620;18.786;2022-12-01T11:21:47;19.90;;;10.00;;
67757;SDS011;54562;47.620;18.786;2022-12-01T11:25:02;20.80;;;11.20;;
67757;SDS011;54562;47.620;18.786;2022-12-01T11:28:23;20.40;;;11.00;;
67757;SDS011;54562;47.620;18.786;2022-12-01T11:31:38;21.80;;;12.10;;
67757;SDS011;54562;47.620;18.786;2022-12-01T11:34:55;20.60;;;10.70;;
67757;SDS011;54562;47.620;18.786;2022-12-01T11:38:06;24.80;;;12.60;;
67757;SDS011;54562;47.620;18.786;2022-12-01T11:41:36;23.70;;;13.50;;
67757;SDS011;54562;47.620;18.786;2022-12-01T11:44:50;24.00;;;12.80;;
67757;SDS011;54562;47.620;18.786;2022-12-01T11:48:03;21.00;;;11.20;;
67757;SDS011;54562;47.620;18.786;2022-12-01T11:51:31;19.20;;;11.20;;
67757;SDS011;54562;47.620;18.786;2022-12-01T11:54:55;19.60;;;12.20;;
67757;SDS011;54562;47.620;18.786;2022-12-01T11:58:13;23.60;;;12.80;;
67757;SDS011;54562;47.620;18.786;2022-12-01T12:01:38;19.90;;;12.20;;
67757;SDS011;54562;47.620;18.786;2022-12-01T12:08:59;20.60;;;11.80;;
67757;SDS011;54562;47.620;18.786;2022-12-01T12:12:28;19.80;;;10.00;;
67757;SDS011;54562;47.620;18.786;2022-12-01T12:15:57;21.80;;;11.90;;
67757;SDS011;54562;47.620;18.786;2022-12-01T12:19:24;18.60;;;10.70;;
67757;SDS011;54562;47.620;18.786;2022-12-01T12:23:13;20.30;;;10.90;;
67757;SDS011;54562;47.620;18.786;2022-12-01T12:26:42;19.10;;;10.80;;
67757;SDS011;54562;47.620;18.786;2022-12-01T12:30:19;18.70;;;10.70;;
67757;SDS011;54562;47.620;18.786;2022-12-01T12:33:51;18.50;;;11.30;;
67757;SDS011;54562;47.620;18.786;2022-12-01T12:37:23;18.30;;;10.10;;
67757;SDS011;54562;47.620;18.786;2022-12-01T12:40:43;19.40;;;11.30;;
67757;SDS011;54562;47.620;18.786;2022-12-01T12:44:09;19.10;;;10.80;;
67757;SDS011;54562;47.620;18.786;2022-12-01T12:47:54;18.60;;;10.60;;
67757;SDS011;54562;47.620;18.786;2022-12-01T12:54:29;17.90;;;10.40;;
67757;SDS011;54562;47.620;18.786;2022-12-01T12:57:50;17.30;;;10.10;;
67757;SDS011;54562;47.620;18.786;2022-12-01T13:01:07;17.80;;;9.90;;
67757;SDS011;54562;47.620;18.786;2022-12-01T13:04:24;16.60;;;9.50;;
67757;SDS011;54562;47.620;18.786;2022-12-01T13:07:42;16.90;;;9.80;;
67757;SDS011;54562;47.620;18.786;2022-12-01T13:10:56;17.40;;;9.70;;
67757;SDS011;54562;47.620;18.786;2022-12-01T13:14:16;16.60;;;9.80;;
67757;SDS011;54562;47.620;18.786;2022-12-01T13:17:39;16.20;;;9.60;;
67757;SDS011;54562;47.620;18.786;2022-12-01T13:20:50;14.70;;;9.10;;
67757;SDS011;54562;47.620;18.786;2022-12-01T13:24:03;17.00;;;8.40;;
67757;SDS011;54562;47.620;18.786;2022-12-01T13:27:19;15.60;;;9.10;;
67757;SDS011;54562;47.620;18.786;2022-12-01T13:30:28;16.70;;;8.80;;
67757;SDS011;54562;47.620;18.786;2022-12-01T13:33:38;15.30;;;9.00;;
67757;SDS011;54562;47.620;18.786;2022-12-01T13:36:51;16.40;;;8.60;;
67757;SDS011;54562;47.620;18.786;2022-12-01T13:40:15;15.10;;;9.30;;
67757;SDS011;54562;47.620;18.786;2022-12-01T13:43:27;15.10;;;8.80;;
67757;SDS011;54562;47.620;18.786;2022-12-01T13:46:52;16.60;;;9.00;;
67757;SDS011;54562;47.620;18.786;2022-12-01T13:50:37;16.60;;;9.00;;
67757;SDS011;54562;47.620;18.786;2022-12-01T13:54:27;16.40;;;9.20;;
67757;SDS011;54562;47.620;18.786;2022-12-01T14:00:45;17.30;;;9.60;;
67757;SDS011;54562;47.620;18.786;2022-12-01T14:03:55;16.00;;;9.20;;
67757;SDS011;54562;47.620;18.786;2022-12-01T14:07:20;14.20;;;8.00;;
67757;SDS011;54562;47.620;18.786;2022-12-01T14:10:32;15.10;;;8.90;;
67757;SDS011;54562;47.620;18.786;2022-12-01T14:16:56;16.60;;;9.00;;
67757;SDS011;54562;47.620;18.786;2022-12-01T14:20:18;18.20;;;9.50;;
67757;SDS011;54562;47.620;18.786;2022-12-01T14:23:29;14.40;;;8.70;;
67757;SDS011;54562;47.620;18.786;2022-12-01T14:26:45;19.30;;;10.30;;
67757;SDS011;54562;47.620;18.786;2022-12-01T14:29:54;16.50;;;10.00;;
67757;SDS011;54562;47.620;18.786;2022-12-01T14:37:01;17.50;;;10.30;;
67757;SDS011;54562;47.620;18.786;2022-12-01T14:40:21;20.30;;;10.30;;
67757;SDS011;54562;47.620;18.786;2022-12-01T14:43:33;20.00;;;11.20;;
67757;SDS011;54562;47.620;18.786;2022-12-01T14:47:05;24.10;;;12.20;;
67757;SDS011;54562;47.620;18.786;2022-12-01T14:50:24;21.50;;;12.60;;
67757;SDS011;54562;47.620;18.786;2022-12-01T14:53:42;21.30;;;12.30;;
67757;SDS011;54562;47.620;18.786;2022-12-01T14:56:56;21.20;;;12.70;;
67757;SDS011;54562;47.620;18.786;2022-12-01T15:00:16;24.70;;;13.00;;
67757;SDS011;54562;47.620;18.786;2022-12-01T15:03:31;21.90;;;12.50;;
67757;SDS011;54562;47.620;18.786;2022-12-01T15:06:42;25.20;;;12.80;;
67757;SDS011;54562;47.620;18.786;2022-12-01T15:10:00;23.40;;;13.30;;
67757;SDS011;54562;47.620;18.786;2022-12-01T15:13:22;22.90;;;13.60;;
67757;SDS011;54562;47.620;18.786;2022-12-01T15:19:25;23.80;;;14.10;;
67757;SDS011;54562;47.620;18.786;2022-12-01T15:33:59;25.60;;;16.40;;
67757;SDS011;54562;47.620;18.786;2022-12-01T15:44:30;29.80;;;17.60;;
67757;SDS011;54562;47.620;18.786;2022-12-01T15:47:48;30.70;;;17.10;;
67757;SDS011;54562;47.620;18.786;2022-12-01T15:51:07;33.50;;;17.70;;
67757;SDS011;54562;47.620;18.786;2022-12-01T15:54:23;29.00;;;16.50;;
67757;SDS011;54562;47.620;18.786;2022-12-01T15:57:32;29.90;;;14.80;;
67757;SDS011;54562;47.620;18.786;2022-12-01T16:00:44;26.10;;;15.10;;
67757;SDS011;54562;47.620;18.786;2022-12-01T16:04:11;25.60;;;14.40;;
67757;SDS011;54562;47.620;18.786;2022-12-01T16:07:23;28.40;;;15.50;;
67757;SDS011;54562;47.620;18.786;2022-12-01T16:11:17;31.20;;;17.10;;
67757;SDS011;54562;47.620;18.786;2022-12-01T16:14:29;29.50;;;17.90;;
67757;SDS011;54562;47.620;18.786;2022-12-01T16:18:15;31.50;;;17.90;;
67757;SDS011;54562;47.620;18.786;2022-12-01T16:21:46;28.10;;;16.40;;
67757;SDS011;54562;47.620;18.786;2022-12-01T16:25:00;29.50;;;16.50;;
67757;SDS011;54562;47.620;18.786;2022-12-01T16:28:23;32.90;;;16.80;;
67757;SDS011;54562;47.620;18.786;2022-12-01T16:31:43;29.00;;;16.30;;
67757;SDS011;54562;47.620;18.786;2022-12-01T16:35:24;26.60;;;16.00;;
67757;SDS011;54562;47.620;18.786;2022-12-01T16:38:34;24.40;;;14.60;;
67757;SDS011;54562;47.620;18.786;2022-12-01T16:41:42;26.90;;;14.80;;
67757;SDS011;54562;47.620;18.786;2022-12-01T16:44:54;26.60;;;15.00;;
67757;SDS011;54562;47.620;18.786;2022-12-01T16:48:02;32.60;;;17.40;;
67757;SDS011;54562;47.620;18.786;2022-12-01T16:51:13;30.00;;;16.20;;
67757;SDS011;54562;47.620;18.786;2022-12-01T16:54:33;24.90;;;14.60;;
67757;SDS011;54562;47.620;18.786;2022-12-01T16:57:42;27.30;;;13.40;;
67757;SDS011;54562;47.620;18.786;2022-12-01T17:00:51;25.90;;;15.00;;
67757;SDS011;54562;47.620;18.786;2022-12-01T17:03:59;26.60;;;14.60;;
67757;SDS011;54562;47.620;18.786;2022-12-01T17:07:12;23.90;;;14.00;;
67757;SDS011;54562;47.620;18.786;2022-12-01T17:10:22;25.90;;;15.10;;
67757;SDS011;54562;47.620;18.786;2022-12-01T17:13:49;26.20;;;14.00;;
67757;SDS011;54562;47.620;18.786;2022-12-01T17:17:19;28.10;;;16.50;;
67757;SDS011;54562;47.620;18.786;2022-12-01T17:21:01;30.10;;;16.90;;
67757;SDS011;54562;47.620;18.786;2022-12-01T17:24:10;30.70;;;16.50;;
67757;SDS011;54562;47.620;18.786;2022-12-01T17:27:23;31.00;;;18.10;;
67757;SDS011;54562;47.620;18.786;2022-12-01T17:30:31;35.80;;;18.60;;
67757;SDS011;54562;47.620;18.786;2022-12-01T17:33:41;32.20;;;18.60;;
67757;SDS011;54562;47.620;18.786;2022-12-01T17:36:49;35.00;;;20.00;;
67757;SDS011;54562;47.620;18.786;2022-12-01T17:39:57;34.10;;;19.40;;
67757;SDS011;54562;47.620;18.786;2022-12-01T17:43:07;34.50;;;19.20;;
67757;SDS011;54562;47.620;18.786;2022-12-01T17:46:15;35.30;;;20.50;;
67757;SDS011;54562;47.620;18.786;2022-12-01T17:49:23;32.90;;;18.60;;
67757;SDS011;54562;47.620;18.786;2022-12-01T17:52:31;32.00;;;18.30;;
67757;SDS011;54562;47.620;18.786;2022-12-01T17:55:40;31.40;;;17.50;;
67757;SDS011;54562;47.620;18.786;2022-12-01T17:58:49;33.10;;;18.30;;
67757;SDS011;54562;47.620;18.786;2022-12-01T18:01:58;35.10;;;18.80;;
67757;SDS011;54562;47.620;18.786;2022-12-01T18:05:07;36.20;;;19.30;;
67757;SDS011;54562;47.620;18.786;2022-12-01T18:08:16;39.60;;;20.70;;
67757;SDS011;54562;47.620;18.786;2022-12-01T18:11:25;39.20;;;21.20;;
67757;SDS011;54562;47.620;18.786;2022-12-01T18:14:34;38.50;;;20.80;;
67757;SDS011;54562;47.620;18.786;2022-12-01T18:17:43;34.40;;;20.20;;
67757;SDS011;54562;47.620;18.786;2022-12-01T18:20:52;35.60;;;19.70;;
67757;SDS011;54562;47.620;18.786;2022-12-01T18:24:02;33.00;;;18.70;;
67757;SDS011;54562;47.620;18.786;2022-12-01T18:27:12;35.90;;;19.60;;
67757;SDS011;54562;47.620;18.786;2022-12-01T18:30:23;31.40;;;18.60;;
67757;SDS011;54562;47.620;18.786;2022-12-01T18:33:31;35.10;;;18.00;;
67757;SDS011;54562;47.620;18.786;2022-12-01T18:36:41;33.70;;;19.20;;
67757;SDS011;54562;47.620;18.786;2022-12-01T18:39:49;35.60;;;19.50;;
67757;SDS011;54562;47.620;18.786;2022-12-01T18:42:59;38.60;;;21.00;;
67757;SDS011;54562;47.620;18.786;2022-12-01T18:46:08;37.70;;;21.00;;
67757;SDS011;54562;47.620;18.786;2022-12-01T18:49:18;35.10;;;19.20;;
67757;SDS011;54562;47.620;18.786;2022-12-01T18:52:27;33.90;;;19.30;;
67757;SDS011;54562;47.620;18.786;2022-12-01T18:55:37;38.20;;;18.40;;
67757;SDS011;54562;47.620;18.786;2022-12-01T18:58:45;31.40;;;18.60;;
67757;SDS011;54562;47.620;18.786;2022-12-01T19:01:58;33.00;;;17.60;;
67757;SDS011;54562;47.620;18.786;2022-12-01T19:05:09;28.80;;;17.40;;
67757;SDS011;54562;47.620;18.786;2022-12-01T19:08:17;36.80;;;17.80;;
67757;SDS011;54562;47.620;18.786;2022-12-01T19:11:25;30.20;;;17.90;;
67757;SDS011;54562;47.620;18.786;2022-12-01T19:14:34;31.90;;;18.10;;
67757;SDS011;54562;47.620;18.786;2022-12-01T19:17:42;29.10;;;16.90;;
67757;SDS011;54562;47.620;18.786;2022-12-01T19:20:50;33.40;;;18.00;;
67757;SDS011;54562;47.620;18.786;2022-12-01T19:23:58;33.50;;;16.40;;
67757;SDS011;54562;47.620;18.786;2022-12-01T19:27:06;28.70;;;15.80;;
67757;SDS011;54562;47.620;18.786;2022-12-01T19:30:15;26.70;;;15.50;;